createdAt,value
2019-02-25T00:00:03.694Z,1.00
2019-02-25T00:02:54.804Z,1.00
2019-02-25T00:05:44.571Z,1.00
2019-02-25T00:08:34.252Z,1.00
2019-02-25T00:11:24.247Z,1.00
2019-02-25T00:14:14.242Z,1.00
2019-02-25T00:17:03.996Z,1.00
2019-02-25T00:19:53.905Z,1.00
2019-02-25T00:22:43.465Z,1.00
2019-02-25T00:25:33.578Z,1.00
2019-02-25T00:28:23.531Z,1.00
2019-02-25T00:31:13.746Z,1.00
2019-02-25T00:34:03.675Z,1.00
2019-02-25T00:36:53.839Z,1.00
2019-02-25T00:39:43.592Z,1.00
2019-02-25T00:42:33.466Z,1.00
2019-02-25T00:45:23.225Z,1.00
2019-02-25T00:48:12.846Z,1.00
2019-02-25T00:51:02.706Z,1.00
2019-02-25T00:53:52.515Z,1.00
2019-02-25T00:56:42.465Z,1.00
2019-02-25T00:59:32.112Z,1.00
2019-02-25T01:02:22.746Z,1.00
2019-02-25T01:05:12.646Z,1.00
2019-02-25T01:08:02.472Z,1.00
2019-02-25T01:10:52.280Z,1.00
2019-02-25T01:13:43.185Z,1.00
2019-02-25T01:16:33.187Z,1.00
2019-02-25T01:19:23.126Z,1.00
2019-02-25T01:22:12.635Z,1.00
2019-02-25T01:25:02.299Z,1.00
2019-02-25T01:27:53.091Z,1.00
2019-02-25T01:30:43.294Z,1.00
2019-02-25T01:33:36.232Z,1.00
2019-02-25T01:36:26.321Z,1.00
2019-02-25T01:39:16.215Z,1.00
2019-02-25T01:42:06.322Z,1.00
2019-02-25T01:44:56.077Z,1.00
2019-02-25T01:47:46.083Z,1.00
2019-02-25T01:50:35.924Z,1.00
2019-02-25T01:53:25.967Z,1.00
2019-02-25T01:56:15.495Z,1.00
2019-02-25T01:59:05.416Z,1.00
2019-02-25T02:01:55.062Z,1.00
2019-02-25T02:04:44.855Z,1.00
2019-02-25T02:07:34.285Z,1.00
2019-02-25T02:10:24.292Z,1.00
2019-02-25T02:13:14.588Z,1.00
2019-02-25T02:16:04.486Z,1.00
2019-02-25T02:18:54.526Z,1.00
2019-02-25T02:21:44.255Z,1.00
2019-02-25T02:24:33.846Z,1.00
2019-02-25T02:27:23.195Z,1.00
2019-02-25T02:30:15.715Z,1.00
2019-02-25T02:33:05.637Z,1.00
2019-02-25T02:35:55.168Z,1.00
2019-02-25T02:38:45.283Z,1.00
2019-02-25T02:42:11.696Z,1.00
2019-02-25T02:45:34.451Z,1.00
2019-02-25T02:48:37.166Z,1.00
2019-02-25T02:51:27.445Z,1.00
2019-02-25T02:54:16.835Z,1.00
2019-02-25T02:57:06.314Z,1.00
2019-02-25T02:59:56.232Z,1.00
2019-02-25T03:02:46.027Z,1.00
2019-02-25T03:05:36.228Z,1.00
2019-02-25T03:08:25.805Z,1.00
2019-02-25T03:11:15.595Z,1.00
2019-02-25T03:14:05.672Z,1.00
2019-02-25T03:16:55.576Z,1.00
2019-02-25T03:19:45.008Z,1.00
2019-02-25T03:22:34.925Z,1.00
2019-02-25T03:25:24.786Z,1.00
2019-02-25T03:28:14.495Z,1.00
2019-02-25T03:31:04.114Z,1.00
2019-02-25T03:33:54.126Z,1.00
2019-02-25T03:36:43.793Z,1.00
2019-02-25T03:39:33.477Z,1.00
2019-02-25T03:42:23.066Z,1.00
2019-02-25T03:45:13.907Z,1.00
2019-02-25T03:48:03.348Z,1.00
2019-02-25T03:50:53.162Z,1.00
2019-02-25T03:53:43.094Z,1.00
2019-02-25T03:56:33.113Z,1.00
2019-02-25T03:59:22.752Z,1.00
2019-02-25T04:02:12.427Z,1.00
2019-02-25T04:05:01.890Z,1.00
2019-02-25T04:07:51.893Z,1.00
2019-02-25T04:10:41.481Z,1.00
2019-02-25T04:13:32.467Z,1.00
2019-02-25T04:16:22.146Z,1.00
2019-02-25T04:19:12.256Z,1.00
2019-02-25T04:22:02.109Z,1.00
2019-02-25T04:24:51.853Z,1.00
2019-02-25T04:27:41.851Z,1.00
2019-02-25T04:30:31.474Z,1.00
2019-02-25T04:33:21.547Z,1.00
2019-02-25T04:36:11.334Z,1.00
2019-02-25T04:39:01.297Z,1.00
2019-02-25T04:41:53.029Z,1.00
2019-02-25T04:44:43.093Z,1.00
2019-02-25T04:47:32.506Z,1.00
2019-02-25T04:50:22.066Z,1.00
2019-02-25T04:53:11.913Z,1.00
2019-02-25T04:56:01.832Z,1.00
2019-02-25T04:58:51.730Z,1.00
2019-02-25T05:01:41.696Z,1.00
2019-02-25T05:04:31.796Z,1.00
2019-02-25T05:07:22.973Z,1.00
2019-02-25T05:10:13.857Z,1.00
2019-02-25T05:13:05.885Z,1.00
2019-02-25T05:15:55.326Z,1.00
2019-02-25T05:18:45.226Z,1.00
2019-02-25T05:21:34.767Z,1.00
2019-02-25T05:24:24.628Z,1.00
2019-02-25T05:27:14.382Z,1.00
2019-02-25T05:30:04.141Z,1.00
2019-02-25T05:32:53.901Z,1.00
2019-02-25T05:35:43.263Z,1.00
2019-02-25T05:38:33.033Z,1.00
2019-02-25T05:41:22.593Z,1.00
2019-02-25T05:44:12.334Z,1.00
2019-02-25T05:47:02.455Z,1.00
2019-02-25T05:49:51.844Z,1.00
2019-02-25T05:52:41.750Z,1.00
2019-02-25T05:55:31.393Z,1.00
2019-02-25T05:58:21.256Z,1.00
2019-02-25T06:01:10.656Z,1.00
2019-02-25T06:04:03.806Z,1.00
2019-02-25T06:06:53.782Z,1.00
2019-02-25T06:09:44.605Z,1.00
2019-02-25T06:12:34.306Z,1.00
2019-02-25T06:15:23.956Z,1.00
2019-02-25T06:18:14.823Z,1.00
2019-02-25T06:21:04.617Z,1.00
2019-02-25T06:23:54.523Z,1.00
2019-02-25T06:26:44.288Z,1.00
2019-02-25T06:29:34.185Z,1.00
2019-02-25T06:32:23.755Z,1.00
2019-02-25T06:35:13.935Z,1.00
2019-02-25T06:38:04.660Z,1.00
2019-02-25T06:40:54.507Z,1.00
2019-02-25T06:43:44.203Z,1.00
2019-02-25T06:46:34.282Z,1.00
2019-02-25T06:49:24.172Z,1.00
2019-02-25T06:52:13.953Z,1.00
2019-02-25T06:55:04.035Z,17.70
2019-02-25T06:57:53.774Z,31.80
2019-02-25T07:00:43.683Z,12.80
2019-02-25T07:03:33.418Z,12.30
2019-02-25T07:06:30.869Z,49.00
2019-02-25T07:09:42.917Z,27.80
2019-02-25T07:12:54.610Z,22.20
2019-02-25T07:15:59.442Z,50.00
2019-02-25T07:19:04.888Z,37.10
2019-02-25T07:22:12.689Z,44.10
2019-02-25T07:25:08.513Z,79.90
2019-02-25T07:28:17.235Z,95.20
2019-02-25T07:31:26.058Z,99.90
2019-02-25T07:34:46.663Z,99.90
2019-02-25T07:37:54.159Z,99.90
2019-02-25T07:41:01.652Z,99.90
2019-02-25T07:44:09.764Z,99.90
2019-02-25T07:47:10.597Z,99.90
2019-02-25T07:50:04.987Z,99.90
2019-02-25T07:53:12.644Z,87.60
2019-02-25T07:56:34.620Z,99.90
2019-02-25T07:59:35.458Z,99.90
2019-02-25T08:02:31.995Z,99.90
2019-02-25T08:05:37.032Z,99.90
2019-02-25T08:08:57.837Z,99.90
2019-02-25T08:11:52.395Z,99.90
2019-02-25T08:14:49.277Z,94.70
2019-02-25T08:18:00.762Z,75.00
2019-02-25T08:21:09.593Z,68.50
2019-02-25T08:24:18.724Z,56.00
2019-02-25T08:27:24.170Z,71.10
2019-02-25T08:30:41.905Z,94.90
2019-02-25T08:33:50.421Z,99.90
2019-02-25T08:37:53.522Z,93.20
2019-02-25T08:41:08.493Z,99.90
2019-02-25T08:44:13.528Z,99.90
2019-02-25T08:47:28.290Z,99.90
2019-02-25T08:50:18.086Z,99.90
2019-02-25T08:53:07.653Z,99.90
2019-02-25T08:55:58.350Z,96.50
2019-02-25T08:58:48.274Z,56.40
2019-02-25T09:01:37.909Z,26.10
2019-02-25T09:04:27.612Z,51.10
2019-02-25T09:07:20.336Z,1.00
2019-02-25T09:10:10.625Z,1.00
2019-02-25T09:13:00.568Z,1.00
2019-02-25T09:15:50.627Z,1.00
2019-02-25T09:18:40.244Z,1.00
2019-02-25T09:21:32.083Z,1.00
2019-02-25T09:24:21.554Z,1.00
2019-02-25T09:27:11.212Z,1.00
2019-02-25T09:30:00.915Z,1.00
2019-02-25T09:32:50.511Z,1.00
2019-02-25T09:35:39.963Z,1.00
2019-02-25T09:38:29.741Z,1.00
2019-02-25T09:41:23.558Z,1.00
2019-02-25T09:44:11.455Z,1.00
2019-02-25T09:47:02.484Z,1.00
2019-02-25T09:49:51.873Z,1.00
2019-02-25T09:52:41.924Z,1.00
2019-02-25T09:55:31.378Z,1.00
2019-02-25T09:58:21.375Z,1.00
2019-02-25T10:01:11.045Z,1.00
2019-02-25T10:04:00.735Z,1.00
2019-02-25T10:06:50.386Z,1.00
2019-02-25T10:09:43.172Z,1.00
2019-02-25T10:12:33.035Z,1.00
2019-02-25T10:15:23.824Z,1.00
2019-02-25T10:18:12.988Z,1.00
2019-02-25T10:21:02.826Z,1.00
2019-02-25T10:23:51.915Z,1.00
2019-02-25T10:26:41.629Z,1.00
2019-02-25T10:29:31.286Z,1.00
2019-02-25T10:32:25.946Z,1.00
2019-02-25T10:35:15.295Z,1.00
2019-02-25T10:38:04.975Z,1.00
2019-02-25T10:40:54.722Z,1.00
2019-02-25T10:43:44.505Z,1.00
2019-02-25T10:46:34.167Z,1.00
2019-02-25T10:49:24.590Z,1.00
2019-02-25T10:52:27.157Z,1.00
2019-02-25T10:55:37.417Z,1.00
2019-02-25T10:58:27.489Z,1.00
2019-02-25T11:01:19.975Z,1.00
2019-02-25T11:04:09.716Z,1.00
2019-02-25T11:07:00.872Z,1.00
2019-02-25T11:10:13.982Z,1.00
2019-02-25T11:13:04.458Z,1.00
2019-02-25T11:15:54.131Z,1.00
2019-02-25T11:18:44.134Z,99.90
2019-02-25T11:21:35.404Z,99.90
2019-02-25T11:24:25.542Z,99.90
2019-02-25T11:27:18.297Z,99.90
2019-02-25T11:30:09.784Z,99.90
2019-02-25T11:33:00.031Z,99.90
2019-02-25T11:35:50.691Z,99.90
2019-02-25T11:38:39.832Z,99.90
2019-02-25T11:41:29.750Z,99.90
2019-02-25T11:44:21.172Z,99.90
2019-02-25T11:47:12.084Z,99.90
2019-02-25T11:50:01.615Z,99.90
2019-02-25T11:52:51.509Z,99.90
2019-02-25T11:55:41.105Z,99.90
2019-02-25T11:58:30.734Z,99.90
2019-02-25T12:01:20.856Z,99.90
2019-02-25T12:04:10.403Z,99.90
2019-02-25T12:06:59.881Z,99.90
2019-02-25T12:09:49.674Z,99.90
2019-02-25T12:12:39.455Z,99.90
2019-02-25T12:15:29.147Z,99.90
2019-02-25T12:18:18.794Z,99.90
2019-02-25T12:21:08.421Z,99.90
2019-02-25T12:23:58.157Z,99.90
2019-02-25T12:26:48.072Z,99.90
2019-02-25T12:29:37.615Z,99.90
2019-02-25T12:32:27.134Z,99.90
2019-02-25T12:35:16.631Z,99.90
2019-02-25T12:38:06.252Z,99.90
2019-02-25T12:40:56.126Z,99.90
2019-02-25T12:43:46.014Z,99.90
2019-02-25T12:46:35.663Z,99.90
2019-02-25T12:49:25.454Z,99.90
2019-02-25T12:52:15.303Z,99.90
2019-02-25T12:55:05.004Z,99.90
2019-02-25T12:57:54.858Z,99.90
2019-02-25T13:00:44.172Z,99.90
2019-02-25T13:03:33.535Z,99.90
2019-02-25T13:06:23.214Z,99.90
2019-02-25T13:09:14.937Z,99.90
2019-02-25T13:12:04.944Z,99.90
2019-02-25T13:14:54.708Z,99.90
2019-02-25T13:17:44.484Z,99.90
2019-02-25T13:20:34.479Z,99.90
2019-02-25T13:23:24.161Z,99.90
2019-02-25T13:26:13.667Z,99.90
2019-02-25T13:29:03.592Z,99.90
2019-02-25T13:31:53.811Z,99.90
2019-02-25T13:34:43.626Z,99.90
2019-02-25T13:37:33.648Z,99.90
2019-02-25T13:40:23.217Z,99.90
2019-02-25T13:43:13.433Z,99.90
2019-02-25T13:46:03.064Z,99.90
2019-02-25T13:48:52.411Z,99.90
2019-02-25T13:51:42.341Z,99.90
2019-02-25T13:54:31.964Z,99.90
2019-02-25T13:57:21.614Z,99.90
2019-02-25T14:00:17.403Z,99.90
2019-02-25T14:03:06.995Z,99.90
2019-02-25T14:05:56.572Z,99.90
2019-02-25T14:08:46.565Z,99.90
2019-02-25T14:11:36.511Z,99.90
2019-02-25T14:14:26.232Z,99.90
2019-02-25T14:17:16.216Z,99.90
2019-02-25T14:20:09.784Z,99.90
2019-02-25T14:23:00.658Z,99.90
2019-02-25T14:25:49.949Z,99.90
2019-02-25T14:28:39.759Z,99.90
2019-02-25T14:31:30.053Z,99.90
2019-02-25T14:34:20.306Z,99.90
2019-02-25T14:37:09.642Z,99.90
2019-02-25T14:40:02.929Z,99.90
2019-02-25T14:42:54.024Z,99.90
2019-02-25T14:45:44.429Z,99.90
2019-02-25T14:48:35.230Z,99.90
2019-02-25T14:51:24.706Z,99.90
2019-02-25T14:54:14.526Z,99.90
2019-02-25T14:57:04.265Z,99.90
2019-02-25T14:59:54.369Z,99.90
2019-02-25T15:02:45.900Z,99.90
2019-02-25T15:05:35.942Z,99.90
2019-02-25T15:08:26.252Z,99.90
2019-02-25T15:11:16.260Z,99.90
2019-02-25T15:14:08.024Z,99.90
2019-02-25T15:16:57.356Z,99.90
2019-02-25T15:19:47.121Z,99.90
2019-02-25T15:22:38.348Z,99.90
2019-02-25T15:25:31.175Z,99.90
2019-02-25T15:28:20.144Z,99.90
2019-02-25T15:31:12.046Z,99.90
2019-02-25T15:34:01.013Z,99.90
2019-02-25T15:36:51.819Z,99.90
2019-02-25T15:39:42.446Z,99.90
2019-02-25T15:42:38.361Z,99.90
2019-02-25T15:45:27.027Z,99.90
2019-02-25T15:48:18.751Z,99.90
2019-02-25T15:51:08.387Z,99.90
2019-02-25T15:53:59.736Z,99.90
2019-02-25T15:56:49.535Z,99.90
2019-02-25T15:59:40.413Z,99.90
2019-02-25T16:02:30.096Z,99.90
2019-02-25T16:05:23.278Z,99.90
2019-02-25T16:08:16.221Z,99.90
2019-02-25T16:11:04.774Z,99.90
2019-02-25T16:13:55.797Z,99.90
2019-02-25T16:16:45.959Z,99.90
2019-02-25T16:19:41.377Z,99.90
2019-02-25T16:22:28.239Z,99.90
2019-02-25T16:25:18.774Z,99.90
2019-02-25T16:28:10.313Z,99.90
2019-02-25T16:31:00.146Z,99.90
2019-02-25T16:33:51.388Z,99.90
2019-02-25T16:36:40.953Z,99.90
2019-02-25T16:39:30.623Z,99.90
2019-02-25T16:42:20.498Z,99.90
2019-02-25T16:45:14.149Z,99.90
2019-02-25T16:48:05.514Z,99.90
2019-02-25T16:50:55.436Z,99.90
2019-02-25T16:53:45.584Z,99.90
2019-02-25T16:56:36.315Z,99.90
2019-02-25T16:59:26.117Z,99.90
2019-02-25T17:02:16.386Z,99.90
2019-02-25T17:05:06.141Z,99.90
2019-02-25T17:07:56.353Z,99.90
2019-02-25T17:10:46.749Z,99.90
2019-02-25T17:13:37.199Z,99.90
2019-02-25T17:16:27.951Z,99.90
2019-02-25T17:19:19.626Z,99.90
2019-02-25T17:22:09.348Z,99.90
2019-02-25T17:25:00.311Z,99.90
2019-02-25T17:27:50.665Z,99.90
2019-02-25T17:30:41.195Z,99.90
2019-02-25T17:33:32.679Z,99.90
2019-02-25T17:36:22.734Z,99.90
2019-02-25T17:39:14.858Z,99.90
2019-02-25T17:42:06.346Z,99.90
2019-02-25T17:44:57.671Z,99.90
2019-02-25T17:47:48.096Z,99.90
2019-02-25T17:50:39.209Z,99.90
2019-02-25T17:53:31.040Z,99.90
2019-02-25T17:56:22.630Z,99.90
2019-02-25T17:59:12.364Z,99.90
2019-02-25T18:02:03.963Z,99.90
2019-02-25T18:04:55.355Z,99.90
2019-02-25T18:07:46.514Z,99.90
2019-02-25T18:10:37.145Z,99.90
2019-02-25T18:13:28.166Z,99.90
2019-02-25T18:16:21.498Z,99.90
2019-02-25T18:19:11.674Z,99.90
2019-02-25T18:22:02.161Z,99.90
2019-02-25T18:24:52.155Z,99.90
2019-02-25T18:27:43.999Z,99.90
2019-02-25T18:30:33.563Z,99.90
2019-02-25T18:33:25.242Z,99.90
2019-02-25T18:36:16.673Z,99.90
2019-02-25T18:39:11.985Z,99.90
2019-02-25T18:42:01.596Z,99.90
2019-02-25T18:44:54.189Z,99.90
2019-02-25T18:47:44.171Z,99.90
2019-02-25T18:50:34.044Z,99.90
2019-02-25T18:53:25.029Z,99.90
2019-02-25T18:56:20.239Z,99.90
2019-02-25T18:59:15.374Z,99.90
2019-02-25T19:02:01.290Z,99.90
2019-02-25T19:04:50.552Z,99.90
2019-02-25T19:07:40.635Z,99.90
2019-02-25T19:10:30.542Z,99.90
2019-02-25T19:13:20.960Z,99.90
2019-02-25T19:16:13.707Z,99.90
2019-02-25T19:19:07.829Z,99.90
2019-02-25T19:21:56.283Z,99.90
2019-02-25T19:24:47.240Z,99.90
2019-02-25T19:27:37.606Z,99.90
2019-02-25T19:30:29.363Z,99.90
2019-02-25T19:33:20.476Z,99.90
2019-02-25T19:36:10.318Z,99.90
2019-02-25T19:39:04.849Z,99.90
2019-02-25T19:41:53.825Z,99.90
2019-02-25T19:44:46.802Z,99.90
2019-02-25T19:47:37.863Z,99.90
2019-02-25T19:50:29.554Z,99.90
2019-02-25T19:53:20.292Z,99.90
2019-02-25T19:56:10.277Z,99.90
2019-02-25T19:59:00.773Z,99.90
2019-02-25T20:01:52.338Z,99.90
2019-02-25T20:04:42.290Z,99.90
2019-02-25T20:07:34.074Z,99.90
2019-02-25T20:10:23.975Z,99.90
2019-02-25T20:13:13.462Z,99.90
2019-02-25T20:16:07.827Z,99.90
2019-02-25T20:18:56.024Z,99.90
2019-02-25T20:21:46.430Z,99.90
2019-02-25T20:24:42.447Z,99.90
2019-02-25T20:27:29.596Z,99.90
2019-02-25T20:30:21.479Z,99.90
2019-02-25T20:33:11.025Z,99.90
2019-02-25T20:36:03.143Z,99.90
2019-02-25T20:38:52.395Z,99.90
2019-02-25T20:41:43.297Z,99.90
2019-02-25T20:44:34.869Z,99.90
2019-02-25T20:47:24.937Z,99.90
2019-02-25T20:50:16.887Z,99.90
2019-02-25T20:53:08.515Z,99.90
2019-02-25T20:55:58.907Z,99.90
2019-02-25T20:58:49.655Z,99.90
2019-02-25T21:01:42.304Z,99.90
2019-02-25T21:04:30.789Z,99.90
2019-02-25T21:07:21.797Z,99.90
2019-02-25T21:10:12.875Z,99.90
2019-02-25T21:13:02.936Z,99.90
2019-02-25T21:15:52.291Z,99.90
2019-02-25T21:18:44.290Z,99.90
2019-02-25T21:21:34.564Z,99.90
2019-02-25T21:24:26.913Z,99.90
2019-02-25T21:27:17.604Z,1.00
2019-02-25T21:30:09.565Z,1.00
2019-02-25T21:33:02.076Z,1.00
2019-02-25T21:35:52.884Z,99.90
2019-02-25T21:38:42.971Z,99.90
2019-02-25T21:41:32.350Z,1.00
2019-02-25T21:44:23.559Z,1.00
2019-02-25T21:47:12.911Z,1.00
2019-02-25T21:50:04.109Z,1.00
2019-02-25T21:52:53.896Z,1.00
2019-02-25T21:55:43.893Z,1.00
2019-02-25T21:58:33.749Z,1.00
2019-02-25T22:01:23.554Z,1.00
2019-02-25T22:04:15.146Z,1.00
2019-02-25T22:07:04.043Z,1.00
2019-02-25T22:09:53.725Z,1.00
2019-02-25T22:12:44.324Z,1.00
2019-02-25T22:15:35.868Z,1.00
2019-02-25T22:18:27.599Z,1.00
2019-02-25T22:21:19.497Z,1.00
2019-02-25T22:24:09.711Z,1.00
2019-02-25T22:27:00.072Z,1.00
2019-02-25T22:29:50.007Z,1.00
2019-02-25T22:32:40.786Z,1.00
2019-02-25T22:35:33.041Z,1.00
2019-02-25T22:38:22.275Z,1.00
2019-02-25T22:41:12.176Z,1.00
2019-02-25T22:44:02.540Z,1.00
2019-02-25T22:46:53.046Z,1.00
2019-02-25T22:49:43.238Z,1.00
2019-02-25T22:52:33.527Z,1.00
2019-02-25T22:55:24.430Z,1.00
2019-02-25T22:58:15.018Z,1.00
2019-02-25T23:01:14.877Z,1.00
2019-02-25T23:04:02.872Z,1.00
2019-02-25T23:06:53.615Z,1.00
2019-02-25T23:09:45.339Z,1.00
2019-02-25T23:12:34.893Z,1.00
2019-02-25T23:15:26.974Z,1.00
2019-02-25T23:18:16.909Z,1.00
2019-02-25T23:21:07.005Z,1.00
2019-02-25T23:23:58.146Z,1.00
2019-02-25T23:26:49.123Z,1.00
2019-02-25T23:29:39.915Z,1.00
2019-02-25T23:32:30.925Z,1.00
2019-02-25T23:35:21.192Z,1.00
2019-02-25T23:38:13.024Z,1.00
2019-02-25T23:41:05.286Z,1.00
2019-02-25T23:43:53.802Z,1.00
2019-02-25T23:46:43.192Z,1.00
2019-02-25T23:49:33.949Z,1.00
2019-02-25T23:52:25.655Z,1.00
2019-02-25T23:55:17.191Z,1.00
2019-02-25T23:58:12.347Z,1.00
